Time;durP1;ratioP1;P1;durP2;ratioP2;P2;SDS_P1;SDS_P2;PMS_P1;PMS_P2;Temp;Humidity;BMP_temperature;BMP_pressure;BME280_temperature;BME280_humidity;BME280_pressure;Samples;Min_cycle;Max_cycle;Signal;HPM_P1;HPM_P2
2021/05/09 00:00:56;;;;;;;4.40;3.87;;;10.10;99.90;;;;;;5029049;28;20261;-55
2021/05/09 00:03:24;;;;;;;4.10;3.70;;;10.10;99.90;;;;;;5029267;28;20234;-55
2021/05/09 00:05:51;;;;;;;6.37;4.37;;;10.10;99.90;;;;;;5029557;28;20589;-57
2021/05/09 00:08:19;;;;;;;4.40;4.00;;;10.10;99.90;;;;;;5029527;28;20237;-57
2021/05/09 00:10:46;;;;;;;4.97;4.00;;;10.20;99.90;;;;;;5028551;28;20241;-54
2021/05/09 00:13:14;;;;;;;5.30;3.53;;;10.20;99.90;;;;;;5029064;28;20267;-56
2021/05/09 00:15:42;;;;;;;3.90;3.47;;;10.20;99.90;;;;;;5029307;28;20681;-53
2021/05/09 00:18:10;;;;;;;5.43;3.70;;;10.20;99.90;;;;;;5029127;28;20458;-55
2021/05/09 00:20:38;;;;;;;4.33;3.43;;;10.20;99.90;;;;;;5028659;28;20313;-56
2021/05/09 00:23:05;;;;;;;4.67;4.17;;;10.30;99.90;;;;;;5028993;28;20231;-56
2021/05/09 00:25:33;;;;;;;3.60;3.30;;;10.30;99.90;;;;;;5029183;28;20317;-56
2021/05/09 00:28:00;;;;;;;4.17;3.67;;;10.30;99.90;;;;;;5029086;28;20730;-54
2021/05/09 00:30:27;;;;;;;5.37;3.90;;;10.30;99.90;;;;;;5027717;28;20233;-55
2021/05/09 00:32:56;;;;;;;4.43;3.57;;;10.30;99.90;;;;;;5023381;28;20505;-54
2021/05/09 00:35:26;;;;;;;4.77;3.67;;;10.30;99.90;;;;;;5028838;28;20242;-54
2021/05/09 00:37:54;;;;;;;5.00;3.77;;;10.40;99.90;;;;;;5028882;28;20238;-56
2021/05/09 00:40:22;;;;;;;4.67;3.67;;;10.40;99.90;;;;;;5028438;28;20645;-55
2021/05/09 00:42:50;;;;;;;4.97;3.70;;;10.40;99.90;;;;;;5028551;28;20235;-55
2021/05/09 00:45:17;;;;;;;4.43;3.60;;;10.50;99.90;;;;;;5026266;28;20234;-57
2021/05/09 00:47:44;;;;;;;4.10;3.70;;;10.50;99.90;;;;;;5028730;28;20746;-55
2021/05/09 00:50:12;;;;;;;4.73;3.40;;;10.50;99.90;;;;;;5028012;28;20256;-55
2021/05/09 00:52:40;;;;;;;4.13;3.73;;;10.50;99.90;;;;;;5027828;28;20235;-55
2021/05/09 00:55:12;;;;;;;4.30;3.90;;;10.60;99.90;;;;;;5028921;28;20652;-56
2021/05/09 00:57:43;;;;;;;4.30;3.53;;;10.60;99.90;;;;;;5043355;28;20231;-55
2021/05/09 01:00:13;;;;;;;4.57;3.73;;;10.60;99.90;;;;;;5027388;28;20245;-55
2021/05/09 01:02:42;;;;;;;4.30;3.90;;;10.70;99.90;;;;;;5027807;28;20299;-53
2021/05/09 01:05:12;;;;;;;3.83;3.13;;;10.70;99.90;;;;;;5028577;28;20284;-57
2021/05/09 01:07:40;;;;;;;4.77;3.77;;;10.80;99.90;;;;;;5028234;28;20462;-56
2021/05/09 01:10:13;;;;;;;5.53;3.70;;;10.80;99.90;;;;;;5027815;28;20235;-55
2021/05/09 01:12:41;;;;;;;4.97;3.53;;;10.80;99.90;;;;;;5042366;28;20234;-56
2021/05/09 01:15:11;;;;;;;5.00;3.73;;;10.90;99.90;;;;;;5028478;28;20930;-57
2021/05/09 01:17:38;;;;;;;3.93;3.27;;;11.00;99.90;;;;;;5043068;28;20243;-56
2021/05/09 01:20:38;;;;;;;4.70;3.83;;;11.00;99.90;;;;;;5042116;28;20317;-56
2021/05/09 01:23:06;;;;;;;3.97;3.37;;;11.00;99.90;;;;;;5042425;28;20257;-57
2021/05/09 01:25:35;;;;;;;3.80;3.30;;;11.10;99.90;;;;;;5027025;28;20277;-54
2021/05/09 01:28:03;;;;;;;3.83;3.40;;;11.20;99.90;;;;;;5027523;28;20281;-57
2021/05/09 01:30:31;;;;;;;3.60;3.30;;;11.20;99.90;;;;;;5026248;28;20764;-55
2021/05/09 01:32:58;;;;;;;6.10;4.10;;;11.20;99.90;;;;;;5028407;28;20230;-54
2021/05/09 01:35:27;;;;;;;5.40;3.23;;;11.20;99.90;;;;;;5027553;28;20245;-53
2021/05/09 01:37:54;;;;;;;4.10;3.07;;;11.30;99.90;;;;;;5042531;28;20262;-55
2021/05/09 01:40:23;;;;;;;3.67;2.97;;;11.30;99.90;;;;;;5041309;28;20329;-55
2021/05/09 01:42:51;;;;;;;5.10;3.20;;;11.40;99.90;;;;;;5042994;28;20595;-56
2021/05/09 01:45:21;;;;;;;3.90;3.10;;;11.40;99.90;;;;;;4998346;28;20719;-56
2021/05/09 01:47:48;;;;;;;2.83;2.60;;;11.50;99.90;;;;;;979047;28;10002040;-55
2021/05/09 01:50:19;;;;;;;3.50;2.93;;;11.50;99.90;;;;;;5037972;28;20240;-57
2021/05/09 01:52:47;;;;;;;4.47;3.33;;;11.50;99.90;;;;;;5007524;28;20235;-55
2021/05/09 01:55:18;;;;;;;4.17;3.63;;;11.50;99.90;;;;;;5009059;28;20606;-58
2021/05/09 01:57:53;;;;;;;6.40;3.20;;;11.50;99.90;;;;;;5007656;28;20743;-56
2021/05/09 02:00:31;;;;;;;4.43;3.37;;;11.40;99.90;;;;;;5036687;28;20241;-57
2021/05/09 02:03:08;;;;;;;3.63;2.97;;;11.50;99.90;;;;;;5042476;28;20253;-54
2021/05/09 02:05:36;;;;;;;5.47;3.00;;;11.50;99.90;;;;;;5027426;28;20250;-58
2021/05/09 02:08:05;;;;;;;4.67;3.10;;;11.50;99.90;;;;;;5042486;28;20812;-56
2021/05/09 02:10:36;;;;;;;3.80;3.20;;;11.50;99.90;;;;;;5041334;28;20320;-54
2021/05/09 02:13:05;;;;;;;4.90;3.23;;;11.50;99.90;;;;;;5042338;28;20244;-57
2021/05/09 02:15:40;;;;;;;3.90;3.60;;;11.50;99.90;;;;;;5042581;28;20246;-53
2021/05/09 02:18:08;;;;;;;4.33;3.33;;;11.50;99.90;;;;;;5025871;28;20254;-57
2021/05/09 02:20:42;;;;;;;4.53;3.40;;;11.50;99.90;;;;;;5025051;28;20254;-57
2021/05/09 02:23:11;;;;;;;4.73;3.20;;;11.50;99.90;;;;;;5027121;28;20297;-55
2021/05/09 02:25:39;;;;;;;3.77;3.40;;;11.50;99.90;;;;;;5039743;28;20321;-56
2021/05/09 02:28:10;;;;;;;4.40;3.57;;;11.60;99.90;;;;;;5025785;28;20241;-56
2021/05/09 02:30:37;;;;;;;4.33;3.60;;;11.50;99.90;;;;;;5041562;28;20239;-53
2021/05/09 02:33:05;;;;;;;4.73;3.50;;;11.50;99.90;;;;;;5042215;28;20239;-57
2021/05/09 02:35:33;;;;;;;6.63;3.40;;;11.50;99.90;;;;;;5027174;28;20293;-55
2021/05/09 02:38:00;;;;;;;4.83;3.40;;;11.50;99.90;;;;;;5027102;28;20250;-57
2021/05/09 02:40:29;;;;;;;3.50;3.20;;;11.50;99.90;;;;;;5025068;28;20239;-54
2021/05/09 02:42:57;;;;;;;4.30;3.40;;;11.50;99.90;;;;;;5042251;28;20637;-57
2021/05/09 02:45:24;;;;;;;3.40;3.00;;;11.50;99.90;;;;;;5042426;28;20239;-54
2021/05/09 02:47:58;;;;;;;4.07;3.70;;;11.40;99.90;;;;;;5042310;28;20234;-56
2021/05/09 02:50:26;;;;;;;3.80;3.10;;;11.40;99.90;;;;;;5041073;28;20242;-53
2021/05/09 02:52:54;;;;;;;4.13;3.20;;;11.40;99.90;;;;;;5045039;28;20250;-56
2021/05/09 02:55:21;;;;;;;3.70;3.30;;;11.40;99.90;;;;;;5046023;28;20316;-56
2021/05/09 02:57:50;;;;;;;3.97;3.13;;;11.40;99.90;;;;;;5045512;28;20235;-54
2021/05/09 03:00:18;;;;;;;3.70;3.00;;;11.30;99.90;;;;;;5029908;28;20349;-56
2021/05/09 03:03:07;;;;;;;4.10;3.33;;;11.30;99.90;;;;;;5030165;28;20823;-56
2021/05/09 03:05:35;;;;;;;3.03;2.77;;;11.40;99.90;;;;;;5045586;28;20239;-56
2021/05/09 03:08:02;;;;;;;3.50;3.20;;;11.40;99.90;;;;;;5030273;28;20493;-53
2021/05/09 03:10:30;;;;;;;5.47;3.33;;;11.40;99.90;;;;;;5030391;28;20231;-56
2021/05/09 03:12:59;;;;;;;4.27;3.43;;;11.40;99.90;;;;;;5042218;28;20245;-57
2021/05/09 03:15:26;;;;;;;3.70;2.77;;;11.40;99.90;;;;;;5010410;28;20259;-55
2021/05/09 03:17:54;;;;;;;3.77;3.10;;;11.40;99.90;;;;;;5010720;28;20259;-54
2021/05/09 03:20:22;;;;;;;4.37;3.17;;;11.50;99.90;;;;;;5010499;28;20244;-55
2021/05/09 03:22:49;;;;;;;4.93;3.23;;;11.40;99.90;;;;;;5014164;28;20259;-57
2021/05/09 03:25:16;;;;;;;3.10;2.80;;;11.40;99.90;;;;;;5036333;28;20335;-56
2021/05/09 03:27:44;;;;;;;4.37;3.07;;;11.40;99.90;;;;;;5029830;28;20255;-56
2021/05/09 03:30:13;;;;;;;5.43;3.33;;;11.40;99.90;;;;;;5029987;28;20580;-56
2021/05/09 03:32:41;;;;;;;3.63;3.07;;;11.40;99.90;;;;;;5030013;28;20241;-56
2021/05/09 03:35:10;;;;;;;3.70;2.97;;;11.30;99.90;;;;;;5030333;28;20274;-57
2021/05/09 03:37:38;;;;;;;3.73;2.90;;;11.30;99.90;;;;;;5029718;28;20239;-56
2021/05/09 03:40:08;;;;;;;3.93;3.53;;;11.30;99.90;;;;;;5029860;28;20277;-56
2021/05/09 03:42:36;;;;;;;3.80;3.33;;;11.30;99.90;;;;;;5029489;28;20293;-56
2021/05/09 03:45:05;;;;;;;4.50;3.30;;;11.30;99.90;;;;;;5030122;28;20254;-55
2021/05/09 03:47:35;;;;;;;3.57;3.27;;;11.30;99.90;;;;;;5029516;28;20243;-53
2021/05/09 03:50:03;;;;;;;3.33;3.03;;;11.30;99.90;;;;;;5029216;28;20248;-53
2021/05/09 03:52:31;;;;;;;5.20;3.10;;;11.20;99.90;;;;;;5029976;28;20293;-57
2021/05/09 03:54:59;;;;;;;5.40;3.47;;;11.20;99.90;;;;;;5029712;28;20250;-56
2021/05/09 03:57:27;;;;;;;3.80;3.20;;;11.20;99.90;;;;;;5044501;28;20242;-53
2021/05/09 03:59:54;;;;;;;3.20;2.90;;;11.20;99.90;;;;;;5028776;28;20710;-56
2021/05/09 04:02:21;;;;;;;3.40;3.10;;;11.20;99.90;;;;;;5029125;28;20250;-55
2021/05/09 04:04:51;;;;;;;3.53;3.10;;;11.20;99.90;;;;;;5028671;28;20246;-56
2021/05/09 04:07:18;;;;;;;3.77;3.00;;;11.20;99.90;;;;;;5029099;28;20240;-54
2021/05/09 04:09:45;;;;;;;3.23;2.73;;;11.20;99.90;;;;;;5028797;28;20605;-54
2021/05/09 04:12:13;;;;;;;2.80;2.60;;;11.20;99.90;;;;;;5027673;28;20293;-54
2021/05/09 04:14:40;;;;;;;3.30;3.00;;;11.30;99.90;;;;;;5029252;28;20235;-55
2021/05/09 04:17:07;;;;;;;3.00;2.80;;;11.30;99.90;;;;;;5028947;28;20733;-57
2021/05/09 04:19:36;;;;;;;4.27;2.87;;;11.30;99.90;;;;;;5044082;28;20247;-55
2021/05/09 04:22:06;;;;;;;2.97;2.63;;;11.30;99.90;;;;;;5027181;28;20271;-55
2021/05/09 04:24:33;;;;;;;3.40;2.80;;;11.30;99.90;;;;;;5027952;28;20238;-56
2021/05/09 04:27:00;;;;;;;2.67;2.47;;;11.30;99.90;;;;;;5029238;28;20249;-55
2021/05/09 04:29:28;;;;;;;3.30;2.73;;;11.30;99.90;;;;;;5028797;28;20293;-56
2021/05/09 04:31:55;;;;;;;3.20;2.90;;;11.30;99.90;;;;;;5029081;28;20239;-56
2021/05/09 04:34:22;;;;;;;4.03;3.00;;;11.40;99.90;;;;;;5028553;28;20244;-57
2021/05/09 04:36:50;;;;;;;3.10;2.80;;;11.40;99.90;;;;;;5028670;28;20243;-53
2021/05/09 04:39:18;;;;;;;3.00;2.60;;;11.60;99.90;;;;;;5028594;28;20253;-56
2021/05/09 04:41:45;;;;;;;3.87;2.33;;;11.70;99.90;;;;;;5028526;28;20248;-55
2021/05/09 04:44:13;;;;;;;3.80;3.13;;;11.80;99.90;;;;;;5028596;28;20317;-57
2021/05/09 04:46:41;;;;;;;3.07;2.77;;;11.80;99.90;;;;;;5028551;28;20243;-57
2021/05/09 04:49:08;;;;;;;5.63;2.90;;;12.00;99.90;;;;;;5026395;28;20259;-55
2021/05/09 04:51:35;;;;;;;5.40;2.80;;;12.10;99.90;;;;;;5028140;28;20243;-56
2021/05/09 04:54:03;;;;;;;3.53;2.30;;;12.20;99.90;;;;;;5028748;28;20246;-55
2021/05/09 04:56:31;;;;;;;6.73;2.60;;;12.20;99.90;;;;;;5028208;28;20242;-57
2021/05/09 04:58:58;;;;;;;3.83;2.70;;;12.30;99.90;;;;;;5028471;28;20250;-56
2021/05/09 05:01:25;;;;;;;4.07;2.73;;;12.30;99.90;;;;;;5027675;28;20239;-57
2021/05/09 05:03:53;;;;;;;3.07;2.70;;;12.50;99.90;;;;;;5028505;28;20776;-56
2021/05/09 05:06:20;;;;;;;3.33;2.67;;;12.50;99.90;;;;;;5028385;28;20259;-57
2021/05/09 05:08:47;;;;;;;4.10;2.63;;;12.70;99.90;;;;;;5028174;28;20258;-55
2021/05/09 05:11:15;;;;;;;3.77;2.53;;;12.80;99.90;;;;;;5028104;28;20567;-54
2021/05/09 05:13:43;;;;;;;2.87;2.57;;;12.80;99.90;;;;;;5027917;28;20239;-57
2021/05/09 05:16:10;;;;;;;5.73;2.53;;;12.90;99.90;;;;;;5026701;28;20264;-58
2021/05/09 05:18:38;;;;;;;3.20;2.40;;;13.10;99.90;;;;;;5024766;28;20249;-56
2021/05/09 05:21:06;;;;;;;4.63;2.60;;;13.30;99.90;;;;;;5022166;28;20773;-54
2021/05/09 05:23:35;;;;;;;2.67;2.10;;;13.40;99.90;;;;;;5026803;28;20244;-53
2021/05/09 05:26:03;;;;;;;2.83;2.50;;;13.30;99.90;;;;;;5027111;28;20239;-56
2021/05/09 05:28:30;;;;;;;2.97;2.40;;;13.40;99.90;;;;;;5026463;28;20240;-58
2021/05/09 05:30:59;;;;;;;3.00;2.37;;;13.60;99.90;;;;;;5026424;28;20336;-56
2021/05/09 05:33:29;;;;;;;3.93;2.53;;;13.70;99.90;;;;;;5026310;28;20291;-56
2021/05/09 05:35:57;;;;;;;3.67;2.63;;;13.80;99.90;;;;;;5026737;28;20291;-57
2021/05/09 05:38:25;;;;;;;3.00;2.40;;;13.90;99.90;;;;;;5026179;28;20248;-57
2021/05/09 05:40:55;;;;;;;2.87;2.40;;;14.10;99.90;;;;;;5026541;28;20240;-56
2021/05/09 05:43:23;;;;;;;2.77;2.50;;;14.20;99.90;;;;;;5025998;28;20286;-57
2021/05/09 05:45:52;;;;;;;2.77;2.20;;;14.40;99.90;;;;;;5026406;28;20239;-57
2021/05/09 05:48:22;;;;;;;3.70;2.40;;;14.50;99.90;;;;;;5041355;28;20228;-56
2021/05/09 05:50:50;;;;;;;3.90;2.57;;;14.60;99.90;;;;;;5025585;28;20241;-54
2021/05/09 05:53:18;;;;;;;3.13;2.73;;;14.60;99.90;;;;;;5026266;28;20446;-57
2021/05/09 05:55:46;;;;;;;3.90;2.67;;;14.70;99.90;;;;;;5025964;28;20286;-54
2021/05/09 05:58:14;;;;;;;3.37;2.60;;;14.90;99.90;;;;;;5026243;28;20696;-57
2021/05/09 06:00:42;;;;;;;3.53;2.40;;;15.20;99.90;;;;;;5025234;28;20643;-56
2021/05/09 06:03:10;;;;;;;4.63;2.33;;;15.20;99.90;;;;;;5027256;28;20592;-57
2021/05/09 06:05:38;;;;;;;4.57;2.30;;;15.30;99.90;;;;;;5027022;28;20235;-58
2021/05/09 06:08:06;;;;;;;2.63;2.40;;;15.40;99.90;;;;;;5025922;28;20247;-58
2021/05/09 06:10:33;;;;;;;4.07;2.77;;;15.40;99.90;;;;;;5026553;28;20290;-57
2021/05/09 06:13:00;;;;;;;3.70;2.87;;;15.50;99.90;;;;;;5027702;28;20885;-57
2021/05/09 06:15:29;;;;;;;3.33;2.40;;;15.50;99.90;;;;;;5026674;28;20232;-57
2021/05/09 06:17:56;;;;;;;4.40;2.23;;;15.70;99.90;;;;;;5025780;28;20294;-54
2021/05/09 06:20:24;;;;;;;3.87;2.70;;;15.90;99.90;;;;;;5026574;28;20278;-58
2021/05/09 06:22:57;;;;;;;2.67;2.43;;;16.10;99.90;;;;;;5026678;28;20243;-56
2021/05/09 06:25:25;;;;;;;3.60;2.20;;;16.00;99.90;;;;;;5027312;28;20243;-56
2021/05/09 06:27:52;;;;;;;4.03;2.83;;;16.20;99.90;;;;;;5030706;28;20592;-57
2021/05/09 06:30:21;;;;;;;2.40;2.20;;;16.50;99.90;;;;;;5030483;28;20461;-58
2021/05/09 06:32:48;;;;;;;3.40;2.30;;;16.40;99.90;;;;;;5031132;28;20702;-55
2021/05/09 06:35:16;;;;;;;3.40;2.10;;;16.50;99.90;;;;;;5031013;28;20261;-56
2021/05/09 06:37:44;;;;;;;3.60;2.30;;;16.70;99.90;;;;;;5030363;28;20232;-54
2021/05/09 06:40:13;;;;;;;2.93;2.47;;;16.80;99.90;;;;;;5030603;28;20236;-58
2021/05/09 06:42:40;;;;;;;3.13;1.87;;;16.90;99.90;;;;;;5030846;28;20600;-58
2021/05/09 06:45:12;;;;;;;4.13;2.23;;;17.30;99.90;;;;;;5031180;28;20240;-59
2021/05/09 06:47:40;;;;;;;3.20;2.37;;;17.40;99.90;;;;;;5031083;28;20234;-54
2021/05/09 06:50:09;;;;;;;2.53;2.20;;;17.40;99.90;;;;;;5029311;28;21025;-56
2021/05/09 06:52:36;;;;;;;2.80;2.10;;;17.40;99.90;;;;;;5030741;28;20287;-59
2021/05/09 06:55:05;;;;;;;2.30;2.07;;;17.60;99.90;;;;;;5030221;28;20750;-59
2021/05/09 06:57:33;;;;;;;2.53;2.20;;;17.70;99.90;;;;;;5046008;28;20260;-57
2021/05/09 07:00:00;;;;;;;3.57;2.20;;;17.80;99.90;;;;;;5029841;28;20231;-58
2021/05/09 07:02:28;;;;;;;3.13;2.30;;;17.70;99.90;;;;;;5029965;28;20323;-56
2021/05/09 07:04:56;;;;;;;2.37;2.17;;;17.80;99.90;;;;;;5030401;28;20246;-55
2021/05/09 07:07:23;;;;;;;4.90;2.37;;;18.10;99.90;;;;;;5030873;28;20291;-57
2021/05/09 07:09:51;;;;;;;2.73;2.10;;;18.30;99.90;;;;;;5029674;28;20563;-58
2021/05/09 07:12:18;;;;;;;3.37;2.33;;;18.20;99.90;;;;;;5026229;28;20244;-55
2021/05/09 07:14:47;;;;;;;2.57;2.00;;;18.30;99.90;;;;;;5029569;28;20269;-58
2021/05/09 07:17:16;;;;;;;2.73;2.30;;;18.40;99.90;;;;;;5028122;28;20245;-57
2021/05/09 07:19:46;;;;;;;3.07;2.47;;;18.50;99.90;;;;;;5029573;28;20725;-57
2021/05/09 07:22:16;;;;;;;3.20;2.33;;;19.00;99.90;;;;;;5028697;28;20265;-58
2021/05/09 07:24:44;;;;;;;3.63;2.17;;;19.10;99.90;;;;;;5030298;28;20258;-57
2021/05/09 07:27:11;;;;;;;3.00;2.20;;;19.10;99.90;;;;;;5030499;28;20242;-57
2021/05/09 07:29:39;;;;;;;3.97;2.40;;;19.20;99.90;;;;;;5028460;28;20715;-58
2021/05/09 07:32:07;;;;;;;3.03;2.20;;;19.40;99.90;;;;;;5026410;28;20246;-56
2021/05/09 07:34:35;;;;;;;4.43;2.17;;;19.40;99.90;;;;;;5029008;28;20254;-57
2021/05/09 07:37:02;;;;;;;3.33;2.17;;;19.50;99.90;;;;;;5028236;28;20278;-57
2021/05/09 07:39:29;;;;;;;2.33;1.90;;;19.80;99.90;;;;;;5031721;28;20238;-57
2021/05/09 07:41:57;;;;;;;2.77;2.33;;;19.90;99.90;;;;;;5032420;28;20717;-58
2021/05/09 07:44:24;;;;;;;3.60;2.33;;;19.90;99.90;;;;;;5031421;28;20238;-55
2021/05/09 07:46:52;;;;;;;5.83;2.20;;;19.90;99.90;;;;;;5030321;28;20247;-57
2021/05/09 07:49:21;;;;;;;4.07;1.90;;;20.10;99.90;;;;;;5030629;28;20258;-57
2021/05/09 07:51:48;;;;;;;4.33;2.00;;;20.30;99.90;;;;;;5029570;28;20262;-58
2021/05/09 07:54:15;;;;;;;4.53;2.10;;;20.50;99.90;;;;;;5036325;28;20325;-58
2021/05/09 07:56:42;;;;;;;4.07;2.10;;;20.80;99.90;;;;;;5029348;28;20254;-58
2021/05/09 07:59:10;;;;;;;3.00;1.90;;;21.20;99.90;;;;;;5027291;28;20331;-58
2021/05/09 08:01:37;;;;;;;2.93;2.07;;;21.40;99.90;;;;;;5028800;28;20228;-59
2021/05/09 08:04:05;;;;;;;4.13;2.53;;;21.80;99.90;;;;;;5027959;28;20247;-58
2021/05/09 08:06:33;;;;;;;2.60;2.07;;;21.80;99.90;;;;;;5031124;28;20255;-58
2021/05/09 08:09:01;;;;;;;2.57;2.10;;;21.80;99.90;;;;;;5026519;28;20240;-57
2021/05/09 08:11:28;;;;;;;4.03;2.57;;;21.40;99.90;;;;;;5028261;28;20409;-56
2021/05/09 08:13:55;;;;;;;3.17;2.10;;;21.30;99.90;;;;;;5025537;28;20259;-58
2021/05/09 08:16:22;;;;;;;3.53;2.40;;;21.40;99.90;;;;;;5028752;28;20324;-57
2021/05/09 08:18:50;;;;;;;3.83;2.30;;;21.60;99.90;;;;;;5028299;28;20301;-58
2021/05/09 08:21:17;;;;;;;3.83;2.30;;;21.90;99.90;;;;;;5029044;28;20235;-58
2021/05/09 08:23:46;;;;;;;4.13;2.30;;;21.90;99.90;;;;;;5029049;28;20323;-57
2021/05/09 08:26:13;;;;;;;4.27;2.20;;;21.70;99.90;;;;;;5029112;28;20256;-57
2021/05/09 08:28:42;;;;;;;3.20;2.10;;;21.90;99.90;;;;;;5028333;28;20290;-56
2021/05/09 08:31:10;;;;;;;4.53;2.57;;;21.80;99.90;;;;;;5028729;28;20344;-58
2021/05/09 08:33:38;;;;;;;3.77;2.33;;;22.20;99.90;;;;;;5029084;28;20314;-58
2021/05/09 08:36:06;;;;;;;3.00;2.10;;;22.40;99.90;;;;;;5028478;28;20331;-59
2021/05/09 08:38:33;;;;;;;3.77;2.27;;;22.50;99.90;;;;;;5028341;28;20240;-57
2021/05/09 08:41:03;;;;;;;4.03;2.30;;;22.60;99.90;;;;;;5027813;28;20259;-58
2021/05/09 08:43:30;;;;;;;3.97;2.10;;;22.90;99.90;;;;;;5026848;28;20239;-58
2021/05/09 08:45:58;;;;;;;4.43;2.33;;;22.90;99.90;;;;;;5036789;28;20282;-58
2021/05/09 08:48:28;;;;;;;3.93;2.00;;;22.40;99.90;;;;;;5043371;28;20615;-57
2021/05/09 08:50:55;;;;;;;3.30;2.23;;;22.60;99.90;;;;;;5027450;28;20238;-58
2021/05/09 08:53:22;;;;;;;3.30;2.10;;;22.90;99.90;;;;;;5043744;28;20734;-57
2021/05/09 08:55:50;;;;;;;3.07;1.93;;;23.10;99.90;;;;;;5028736;28;20653;-59
2021/05/09 08:58:18;;;;;;;2.63;2.27;;;23.30;99.90;;;;;;5028290;28;20241;-59
2021/05/09 09:00:45;;;;;;;4.00;2.10;;;23.20;99.90;;;;;;5026049;28;20233;-59
2021/05/09 09:03:14;;;;;;;4.27;2.40;;;23.10;99.90;;;;;;5026491;28;20731;-56
2021/05/09 09:05:44;;;;;;;6.80;2.10;;;23.30;99.90;;;;;;5026938;28;20232;-58
2021/05/09 09:08:14;;;;;;;3.60;2.43;;;23.40;99.90;;;;;;5024950;28;20246;-57
2021/05/09 09:10:45;;;;;;;5.20;2.40;;;23.30;99.90;;;;;;5022635;28;20232;-59
2021/05/09 09:13:23;;;;;;;2.87;1.93;;;23.10;99.90;;;;;;5026935;28;20330;-59
2021/05/09 09:15:58;;;;;;;5.60;2.50;;;23.30;99.90;;;;;;5026414;28;20260;-56
2021/05/09 09:18:37;;;;;;;4.43;2.20;;;23.50;99.90;;;;;;5026801;28;20243;-59
2021/05/09 09:21:26;;;;;;;4.23;2.00;;;23.60;99.90;;;;;;5025995;28;20255;-58
2021/05/09 09:23:56;;;;;;;2.53;2.10;;;23.60;99.90;;;;;;5027017;28;20244;-56
2021/05/09 09:26:36;;;;;;;2.93;1.90;;;23.80;99.90;;;;;;5026346;28;20248;-58
2021/05/09 09:29:23;;;;;;;2.47;2.10;;;23.90;99.90;;;;;;5026097;28;20263;-57
2021/05/09 09:31:56;;;;;;;3.90;2.47;;;23.90;99.90;;;;;;5037285;28;20296;-57
2021/05/09 09:34:37;;;;;;;6.60;2.30;;;24.30;99.90;;;;;;5006781;28;20253;-57
2021/05/09 09:37:05;;;;;;;6.63;2.30;;;24.80;99.90;;;;;;5006680;28;20246;-59
2021/05/09 09:39:49;;;;;;;2.97;2.30;;;25.00;99.90;;;;;;5023803;28;20244;-58
2021/05/09 09:42:33;;;;;;;3.13;2.07;;;25.00;99.90;;;;;;5026550;28;20312;-58
2021/05/09 09:45:14;;;;;;;2.90;1.93;;;25.10;99.90;;;;;;5026240;28;20249;-57
2021/05/09 09:47:50;;;;;;;2.33;2.07;;;24.80;99.90;;;;;;5026062;28;20241;-58
2021/05/09 09:50:40;;;;;;;3.87;2.10;;;25.00;99.90;;;;;;5024927;28;20284;-58
2021/05/09 09:53:27;;;;;;;3.73;1.93;;;25.10;99.90;;;;;;5022647;28;20603;-58
2021/05/09 09:56:06;;;;;;;3.03;1.90;;;25.30;99.90;;;;;;5023272;28;20301;-57
2021/05/09 09:58:51;;;;;;;2.23;1.80;;;25.60;99.90;;;;;;5025062;28;20246;-57
2021/05/09 10:01:23;;;;;;;3.93;2.00;;;25.60;99.90;;;;;;5025064;28;20243;-57
2021/05/09 10:03:52;;;;;;;2.83;1.93;;;25.50;99.90;;;;;;5038546;28;20238;-58
2021/05/09 10:06:20;;;;;;;3.20;1.80;;;25.70;99.90;;;;;;5025973;28;20304;-58
2021/05/09 10:08:49;;;;;;;2.80;1.90;;;25.90;99.90;;;;;;5022805;28;20595;-58
2021/05/09 10:11:17;;;;;;;4.63;2.13;;;25.80;99.90;;;;;;5025330;28;20250;-57
2021/05/09 10:13:46;;;;;;;3.60;2.07;;;25.70;99.90;;;;;;5026074;28;20247;-58
2021/05/09 10:16:14;;;;;;;4.80;1.83;;;25.40;99.90;;;;;;5025926;28;20247;-58
2021/05/09 10:21:42;;;;;;;3.70;1.90;;;25.20;99.90;;;;;;5025952;28;20225;-57
2021/05/09 10:24:12;;;;;;;2.70;1.50;;;24.80;99.90;;;;;;5024809;28;20321;-59
2021/05/09 10:26:53;;;;;;;3.00;1.50;;;24.50;99.90;;;;;;5025697;28;20366;-59
2021/05/09 10:30:00;;;;;;;3.80;1.77;;;24.60;99.90;;;;;;5025403;28;20249;-58
2021/05/09 10:32:51;;;;;;;3.87;1.73;;;24.90;99.90;;;;;;5025483;28;20293;-58
2021/05/09 10:35:53;;;;;;;3.40;1.80;;;25.20;99.90;;;;;;5024326;28;20766;-59
2021/05/09 10:38:20;;;;;;;3.03;1.97;;;25.40;99.90;;;;;;5022886;28;20230;-58
2021/05/09 10:40:48;;;;;;;2.77;1.67;;;25.40;99.90;;;;;;5024445;28;20251;-59
2021/05/09 10:43:39;;;;;;;1.87;1.70;;;25.70;99.90;;;;;;5025874;28;20248;-57
2021/05/09 10:46:09;;;;;;;4.67;1.90;;;26.10;99.90;;;;;;5023821;28;20259;-58
2021/05/09 10:48:37;;;;;;;2.47;1.60;;;26.30;99.90;;;;;;5025962;28;20263;-56
2021/05/09 10:51:31;;;;;;;2.20;1.60;;;26.60;99.90;;;;;;5025381;28;20643;-59
2021/05/09 10:54:22;;;;;;;2.70;1.43;;;26.30;98.90;;;;;;5026310;28;20243;-56
2021/05/09 10:56:52;;;;;;;3.93;2.00;;;26.40;99.90;;;;;;5025935;28;20612;-58
2021/05/09 10:59:20;;;;;;;3.00;1.70;;;26.50;99.30;;;;;;5020661;28;20238;-58
2021/05/09 11:02:08;;;;;;;2.13;1.83;;;26.50;99.50;;;;;;5022994;28;20237;-58
2021/05/09 11:04:49;;;;;;;2.70;1.50;;;26.70;99.20;;;;;;5026760;28;20240;-58
2021/05/09 11:07:43;;;;;;;2.70;1.60;;;26.70;98.80;;;;;;5025828;28;20302;-57
2021/05/09 11:10:39;;;;;;;2.03;1.47;;;26.60;96.40;;;;;;5025276;28;20246;-57
2021/05/09 11:13:07;;;;;;;3.20;1.53;;;26.90;97.80;;;;;;5019874;28;20235;-57
2021/05/09 11:15:35;;;;;;;2.07;1.40;;;27.30;97.80;;;;;;5030160;28;20239;-57
2021/05/09 11:18:14;;;;;;;2.83;1.57;;;27.50;97.40;;;;;;5030728;28;20239;-58
2021/05/09 11:20:52;;;;;;;2.70;1.40;;;27.30;95.30;;;;;;5009174;28;20251;-58
2021/05/09 11:23:21;;;;;;;2.60;1.30;;;27.30;95.50;;;;;;5010408;28;20256;-59
2021/05/09 11:25:50;;;;;;;2.87;1.50;;;27.10;95.20;;;;;;5028493;28;20250;-58
2021/05/09 11:28:28;;;;;;;2.80;1.70;;;27.00;95.30;;;;;;5029820;28;20244;-58
2021/05/09 11:30:55;;;;;;;3.00;1.50;;;27.10;95.50;;;;;;5028313;28;20322;-58
2021/05/09 11:33:53;;;;;;;3.50;1.50;;;27.00;95.80;;;;;;5029767;28;20933;-57
2021/05/09 11:36:25;;;;;;;3.17;1.50;;;27.20;94.90;;;;;;5010681;28;20240;-58
2021/05/09 11:39:09;;;;;;;3.70;1.67;;;27.00;94.50;;;;;;5008247;28;20682;-59
2021/05/09 11:41:51;;;;;;;3.60;1.70;;;27.20;95.00;;;;;;5006102;28;20232;-58
2021/05/09 11:44:19;;;;;;;2.10;1.20;;;27.50;94.70;;;;;;5003324;28;20241;-56
2021/05/09 11:46:47;;;;;;;3.20;1.13;;;27.70;92.00;;;;;;5007560;28;20241;-58
2021/05/09 11:49:17;;;;;;;2.20;1.33;;;27.60;92.60;;;;;;5007279;28;20755;-56
2021/05/09 11:51:49;;;;;;;1.93;1.50;;;27.50;93.10;;;;;;5007054;28;20260;-58
2021/05/09 11:54:18;;;;;;;1.93;1.10;;;27.50;92.80;;;;;;5022528;28;20264;-56
2021/05/09 11:56:54;;;;;;;2.40;1.30;;;27.20;92.30;;;;;;5029967;28;20275;-58
2021/05/09 11:59:29;;;;;;;2.60;1.50;;;27.10;92.60;;;;;;5027024;28;20302;-56
2021/05/09 12:01:58;;;;;;;2.70;1.50;;;27.00;92.90;;;;;;5029272;28;20239;-58
2021/05/09 12:04:29;;;;;;;3.07;1.43;;;26.80;93.60;;;;;;5026251;28;20310;-57
2021/05/09 12:07:02;;;;;;;3.53;1.67;;;27.00;93.60;;;;;;5024587;28;20235;-57
2021/05/09 12:09:31;;;;;;;2.57;1.40;;;26.60;93.40;;;;;;5029140;28;20225;-59
2021/05/09 12:12:00;;;;;;;2.83;1.50;;;26.60;95.20;;;;;;5029050;28;20318;-58
2021/05/09 12:14:29;;;;;;;2.43;1.70;;;26.90;94.60;;;;;;5029068;28;20268;-59
2021/05/09 12:16:57;;;;;;;1.90;1.40;;;26.70;94.30;;;;;;5033572;28;20706;-57
2021/05/09 12:19:30;;;;;;;1.63;1.40;;;26.90;94.20;;;;;;5020509;28;20707;-58
2021/05/09 12:21:59;;;;;;;3.90;1.43;;;26.70;94.00;;;;;;5028983;28;20757;-57
2021/05/09 12:24:27;;;;;;;2.80;1.30;;;26.70;93.60;;;;;;5028732;28;20235;-58
2021/05/09 12:27:02;;;;;;;1.90;1.50;;;26.80;94.40;;;;;;5028996;28;20569;-58
2021/05/09 12:29:30;;;;;;;2.87;1.30;;;26.90;92.90;;;;;;5008434;28;20237;-58
2021/05/09 12:32:17;;;;;;;1.63;1.30;;;26.70;93.30;;;;;;5008857;28;20243;-57
2021/05/09 12:35:16;;;;;;;1.73;1.40;;;26.80;92.20;;;;;;5009226;28;20247;-58
2021/05/09 12:38:01;;;;;;;3.80;2.00;;;27.00;91.60;;;;;;4977877;28;20236;-57
2021/05/09 12:40:33;;;;;;;2.00;1.50;;;27.10;92.50;;;;;;5006216;28;20237;-58
2021/05/09 12:43:05;;;;;;;5.87;4.03;;;27.10;91.80;;;;;;5009472;28;20634;-57
2021/05/09 12:45:42;;;;;;;8.50;7.00;;;26.90;91.20;;;;;;5013175;28;20259;-58
2021/05/09 12:48:13;;;;;;;7.90;7.10;;;26.80;90.60;;;;;;5027930;28;20692;-59
2021/05/09 12:50:59;;;;;;;3.70;1.97;;;26.90;91.10;;;;;;5027371;28;20588;-58
2021/05/09 12:53:51;;;;;;;4.37;3.20;;;27.10;90.20;;;;;;5028573;28;20244;-58
2021/05/09 12:56:28;;;;;;;2.83;1.60;;;27.20;91.20;;;;;;5020003;28;20237;-57
2021/05/09 12:59:14;;;;;;;3.03;1.20;;;27.20;90.70;;;;;;5027225;28;20801;-58
2021/05/09 13:01:44;;;;;;;3.20;1.43;;;27.20;90.40;;;;;;5020382;28;20244;-57
2021/05/09 13:04:35;;;;;;;1.57;1.13;;;26.90;87.70;;;;;;5028262;28;20239;-57
2021/05/09 13:07:04;;;;;;;2.23;1.30;;;26.60;89.50;;;;;;5028341;28;20247;-57
2021/05/09 13:09:33;;;;;;;3.20;1.97;;;26.60;91.20;;;;;;5020432;28;20310;-57